PWSweather.com
Personal Weather Stations
Station Observations
WD4JKH
Forsyth, GA 31029

Forsyth, GA 31029

Lat: 33.033225, Lon: -83.927995

Elevation: 709

Station Type: Davis Vantage VUE

High Low Average
Temperature 44.7°F7.1°C 25.0°F-3.9°C 34.4°F1.3°C
Dew Point 21.4°F-5.9°C 12.4°F-10.9°C 16.8°F-8.4°C
Winds 10.0 mph 16.1 kmh 1.0 mph 1.6 kmh 3.0 mph W4.8 kmh W
Wind Gusts 18.0 mph29.0 kmh 2.0 mph3.2 kmh 8.0 mph12.9 kmh
Humidity 64% 35% 49%
Pressure 30.36 in1028.1 mb 30.15 in1021.0 mb -
Precipitation 0.00 in0.0 mm - -
Hour Temp Dew Point Humidity Winds Wind Gusts Pressure Precip Precip Rate Daily Precip Total
12:03 AM 29.2°F-1.6°C 15.0°F-9.4°C 55% 2.9 mph NW4.7 kmh NW 11.0 mph17.7 kmh 30.15 in1021.0 mb 0.00 in0.0 mm 0.00 in0.0 mm 0.00 in0.0 mm
12:08 AM 29.1°F-1.6°C 14.9°F-9.5°C 55% 2.5 mph NW4.0 kmh NW 11.0 mph17.7 kmh 30.15 in1021.0 mb 0.00 in0.0 mm 0.00 in0.0 mm 0.00 in0.0 mm
12:13 AM 29.1°F-1.6°C 14.5°F-9.7°C 54% 4.0 mph NW6.4 kmh NW 9.0 mph14.5 kmh 30.16 in1021.3 mb 0.00 in0.0 mm 0.00 in0.0 mm 0.00 in0.0 mm
12:18 AM 29.1°F-1.6°C 14.5°F-9.7°C 54% 3.8 mph NW6.1 kmh NW 10.0 mph16.1 kmh 30.16 in1021.3 mb 0.00 in0.0 mm 0.00 in0.0 mm 0.00 in0.0 mm
12:23 AM 29.0°F-1.7°C 14.4°F-9.8°C 54% 3.6 mph NW5.8 kmh NW 10.0 mph16.1 kmh 30.16 in1021.3 mb 0.00 in0.0 mm 0.00 in0.0 mm 0.00 in0.0 mm
12:28 AM 28.9°F-1.7°C 14.3°F-9.8°C 54% 2.4 mph NW3.9 kmh NW 10.0 mph16.1 kmh 30.15 in1021.0 mb 0.00 in0.0 mm 0.00 in0.0 mm 0.00 in0.0 mm
12:33 AM 28.9°F-1.7°C 13.9°F-10.1°C 53% 5.4 mph NW8.7 kmh NW 10.0 mph16.1 kmh 30.16 in1021.3 mb 0.00 in0.0 mm 0.00 in0.0 mm 0.00 in0.0 mm
12:38 AM 28.9°F-1.7°C 13.9°F-10.1°C 53% 3.0 mph NW4.8 kmh NW 10.0 mph16.1 kmh 30.16 in1021.3 mb 0.00 in0.0 mm 0.00 in0.0 mm 0.00 in0.0 mm
12:43 AM 28.9°F-1.7°C 13.9°F-10.1°C 53% 3.5 mph NW5.6 kmh NW 9.0 mph14.5 kmh 30.17 in1021.7 mb 0.00 in0.0 mm 0.00 in0.0 mm 0.00 in0.0 mm
12:48 AM 28.7°F-1.8°C 13.7°F-10.2°C 53% 2.4 mph NW3.9 kmh NW 9.0 mph14.5 kmh 30.16 in1021.3 mb 0.00 in0.0 mm 0.00 in0.0 mm 0.00 in0.0 mm
12:53 AM 28.7°F-1.8°C 14.1°F-9.9°C 54% 2.1 mph NW3.4 kmh NW 9.0 mph14.5 kmh 30.17 in1021.7 mb 0.00 in0.0 mm 0.00 in0.0 mm 0.00 in0.0 mm
12:58 AM 28.5°F-1.9°C 13.9°F-10.1°C 54% 2.4 mph WNW3.9 kmh WNW 9.0 mph14.5 kmh 30.17 in1021.7 mb 0.00 in0.0 mm 0.00 in0.0 mm 0.00 in0.0 mm
01:03 AM 28.4°F-2.0°C 13.8°F-10.1°C 54% 2.7 mph NW4.3 kmh NW 9.0 mph14.5 kmh 30.17 in1021.7 mb 0.00 in0.0 mm 0.00 in0.0 mm 0.00 in0.0 mm
01:08 AM 28.3°F-2.1°C 13.8°F-10.1°C 54% 2.7 mph NW4.3 kmh NW 8.0 mph12.9 kmh 30.17 in1021.7 mb 0.00 in0.0 mm 0.00 in0.0 mm 0.00 in0.0 mm
01:13 AM 28.2°F-2.1°C 14.1°F-9.9°C 55% 1.7 mph NW2.7 kmh NW 7.0 mph11.3 kmh 30.17 in1021.7 mb 0.00 in0.0 mm 0.00 in0.0 mm 0.00 in0.0 mm
01:18 AM 28.1°F-2.2°C 14.0°F-10.0°C 55% 1.8 mph NW2.9 kmh NW 7.0 mph11.3 kmh 30.17 in1021.7 mb 0.00 in0.0 mm 0.00 in0.0 mm 0.00 in0.0 mm
01:23 AM 28.0°F-2.2°C 13.9°F-10.1°C 55% 2.2 mph NW3.5 kmh NW 7.0 mph11.3 kmh 30.17 in1021.7 mb 0.00 in0.0 mm 0.00 in0.0 mm 0.00 in0.0 mm
01:28 AM 27.9°F-2.3°C 13.8°F-10.1°C 55% 2.6 mph NW4.2 kmh NW 7.0 mph11.3 kmh 30.17 in1021.7 mb 0.00 in0.0 mm 0.00 in0.0 mm 0.00 in0.0 mm
01:33 AM 27.9°F-2.3°C 13.8°F-10.1°C 55% 2.2 mph WNW3.5 kmh WNW 7.0 mph11.3 kmh 30.18 in1022.0 mb 0.00 in0.0 mm 0.00 in0.0 mm 0.00 in0.0 mm
01:38 AM 27.9°F-2.3°C 13.8°F-10.1°C 55% 2.2 mph NW3.5 kmh NW 7.0 mph11.3 kmh 30.18 in1022.0 mb 0.00 in0.0 mm 0.00 in0.0 mm 0.00 in0.0 mm
01:43 AM 27.8°F-2.3°C 13.7°F-10.2°C 55% 2.9 mph NW4.7 kmh NW 7.0 mph11.3 kmh 30.18 in1022.0 mb 0.00 in0.0 mm 0.00 in0.0 mm 0.00 in0.0 mm
01:48 AM 27.8°F-2.3°C 13.3°F-10.4°C 54% 2.0 mph WNW3.2 kmh WNW 7.0 mph11.3 kmh 30.18 in1022.0 mb 0.00 in0.0 mm 0.00 in0.0 mm 0.00 in0.0 mm
01:53 AM 27.7°F-2.4°C 13.2°F-10.4°C 54% 1.4 mph WNW2.3 kmh WNW 6.0 mph9.7 kmh 30.19 in1022.4 mb 0.00 in0.0 mm 0.00 in0.0 mm 0.00 in0.0 mm
01:58 AM 27.7°F-2.4°C 13.2°F-10.4°C 54% 1.8 mph WNW2.9 kmh WNW 6.0 mph9.7 kmh 30.19 in1022.4 mb 0.00 in0.0 mm 0.00 in0.0 mm 0.00 in0.0 mm
02:03 AM 27.7°F-2.4°C 13.2°F-10.4°C 54% 1.6 mph NW2.6 kmh NW 6.0 mph9.7 kmh 30.19 in1022.4 mb 0.00 in0.0 mm 0.00 in0.0 mm 0.00 in0.0 mm
02:08 AM 27.5°F-2.5°C 13.0°F-10.6°C 54% 1.6 mph WNW2.6 kmh WNW 6.0 mph9.7 kmh 30.19 in1022.4 mb 0.00 in0.0 mm 0.00 in0.0 mm 0.00 in0.0 mm
02:13 AM 27.5°F-2.5°C 13.0°F-10.6°C 54% 2.1 mph NW3.4 kmh NW 6.0 mph9.7 kmh 30.19 in1022.4 mb 0.00 in0.0 mm 0.00 in0.0 mm 0.00 in0.0 mm
02:18 AM 27.4°F-2.6°C 12.9°F-10.6°C 54% 1.1 mph WNW1.8 kmh WNW 5.0 mph8.0 kmh 30.19 in1022.4 mb 0.00 in0.0 mm 0.00 in0.0 mm 0.00 in0.0 mm
02:23 AM 27.4°F-2.6°C 12.5°F-10.8°C 53% 2.4 mph WNW3.9 kmh WNW 6.0 mph9.7 kmh 30.19 in1022.4 mb 0.00 in0.0 mm 0.00 in0.0 mm 0.00 in0.0 mm
02:28 AM 27.3°F-2.6°C 12.4°F-10.9°C 53% 2.0 mph WNW3.2 kmh WNW 6.0 mph9.7 kmh 30.19 in1022.4 mb 0.00 in0.0 mm 0.00 in0.0 mm 0.00 in0.0 mm
02:33 AM 27.3°F-2.6°C 12.4°F-10.9°C 53% 1.4 mph WNW2.3 kmh WNW 6.0 mph9.7 kmh 30.19 in1022.4 mb 0.00 in0.0 mm 0.00 in0.0 mm 0.00 in0.0 mm
02:38 AM 27.1°F-2.7°C 12.6°F-10.8°C 54% 1.3 mph WNW2.1 kmh WNW 6.0 mph9.7 kmh 30.19 in1022.4 mb 0.00 in0.0 mm 0.00 in0.0 mm 0.00 in0.0 mm
02:43 AM 27.0°F-2.8°C 12.5°F-10.8°C 54% 1.8 mph WNW2.9 kmh WNW 5.0 mph8.0 kmh 30.19 in1022.4 mb 0.00 in0.0 mm 0.00 in0.0 mm 0.00 in0.0 mm
02:48 AM 26.9°F-2.8°C 12.4°F-10.9°C 54% 1.5 mph WNW2.4 kmh WNW 5.0 mph8.0 kmh 30.19 in1022.4 mb 0.00 in0.0 mm 0.00 in0.0 mm 0.00 in0.0 mm
02:53 AM 26.9°F-2.8°C 12.4°F-10.9°C 54% 1.9 mph WNW3.1 kmh WNW 4.0 mph6.4 kmh 30.19 in1022.4 mb 0.00 in0.0 mm 0.00 in0.0 mm 0.00 in0.0 mm
02:58 AM 26.8°F-2.9°C 12.4°F-10.9°C 54% 2.3 mph WNW3.7 kmh WNW 5.0 mph8.0 kmh 30.20 in1022.7 mb 0.00 in0.0 mm 0.00 in0.0 mm 0.00 in0.0 mm
03:03 AM 26.7°F-2.9°C 12.7°F-10.7°C 55% 1.5 mph W2.4 kmh W 5.0 mph8.0 kmh 30.19 in1022.4 mb 0.00 in0.0 mm 0.00 in0.0 mm 0.00 in0.0 mm
03:08 AM 26.7°F-2.9°C 12.7°F-10.7°C 55% 1.7 mph W2.7 kmh W 5.0 mph8.0 kmh 30.19 in1022.4 mb 0.00 in0.0 mm 0.00 in0.0 mm 0.00 in0.0 mm
03:12 AM 26.6°F-3.0°C 12.6°F-10.8°C 55% 1.8 mph WNW2.9 kmh WNW 5.0 mph8.0 kmh 30.19 in1022.4 mb 0.00 in0.0 mm 0.00 in0.0 mm 0.00 in0.0 mm
03:17 AM 26.5°F-3.1°C 12.5°F-10.8°C 55% 1.9 mph WNW3.1 kmh WNW 5.0 mph8.0 kmh 30.19 in1022.4 mb 0.00 in0.0 mm 0.00 in0.0 mm 0.00 in0.0 mm
03:22 AM 26.5°F-3.1°C 12.5°F-10.8°C 55% 1.8 mph WNW2.9 kmh WNW 5.0 mph8.0 kmh 30.19 in1022.4 mb 0.00 in0.0 mm 0.00 in0.0 mm 0.00 in0.0 mm
03:27 AM 26.5°F-3.1°C 12.5°F-10.8°C 55% 1.9 mph WNW3.1 kmh WNW 4.0 mph6.4 kmh 30.19 in1022.4 mb 0.00 in0.0 mm 0.00 in0.0 mm 0.00 in0.0 mm
03:32 AM 26.4°F-3.1°C 12.8°F-10.7°C 56% 2.2 mph WNW3.5 kmh WNW 5.0 mph8.0 kmh 30.20 in1022.7 mb 0.00 in0.0 mm 0.00 in0.0 mm 0.00 in0.0 mm
03:37 AM 26.3°F-3.2°C 12.7°F-10.7°C 56% 2.1 mph WNW3.4 kmh WNW 7.0 mph11.3 kmh 30.20 in1022.7 mb 0.00 in0.0 mm 0.00 in0.0 mm 0.00 in0.0 mm
03:42 AM 26.4°F-3.1°C 12.8°F-10.7°C 56% 2.3 mph NW3.7 kmh NW 7.0 mph11.3 kmh 30.20 in1022.7 mb 0.00 in0.0 mm 0.00 in0.0 mm 0.00 in0.0 mm
03:47 AM 26.4°F-3.1°C 12.8°F-10.7°C 56% 2.1 mph WNW3.4 kmh WNW 7.0 mph11.3 kmh 30.20 in1022.7 mb 0.00 in0.0 mm 0.00 in0.0 mm 0.00 in0.0 mm
03:52 AM 26.4°F-3.1°C 12.8°F-10.7°C 56% 3.0 mph NW4.8 kmh NW 7.0 mph11.3 kmh 30.20 in1022.7 mb 0.00 in0.0 mm 0.00 in0.0 mm 0.00 in0.0 mm
03:57 AM 26.3°F-3.2°C 13.1°F-10.5°C 57% 2.1 mph WNW3.4 kmh WNW 7.0 mph11.3 kmh 30.20 in1022.7 mb 0.00 in0.0 mm 0.00 in0.0 mm 0.00 in0.0 mm
04:02 AM 26.2°F-3.2°C 13.4°F-10.3°C 58% 3.0 mph WNW4.8 kmh WNW 7.0 mph11.3 kmh 30.20 in1022.7 mb 0.00 in0.0 mm 0.00 in0.0 mm 0.00 in0.0 mm
04:07 AM 26.2°F-3.2°C 13.0°F-10.6°C 57% 3.4 mph NW5.5 kmh NW 8.0 mph12.9 kmh 30.21 in1023.0 mb 0.00 in0.0 mm 0.00 in0.0 mm 0.00 in0.0 mm
04:12 AM 26.2°F-3.2°C 13.0°F-10.6°C 57% 2.0 mph NW3.2 kmh NW 8.0 mph12.9 kmh 30.21 in1023.0 mb 0.00 in0.0 mm 0.00 in0.0 mm 0.00 in0.0 mm
04:17 AM 26.1°F-3.3°C 13.0°F-10.6°C 57% 2.0 mph WNW3.2 kmh WNW 8.0 mph12.9 kmh 30.20 in1022.7 mb 0.00 in0.0 mm 0.00 in0.0 mm 0.00 in0.0 mm
04:22 AM 26.1°F-3.3°C 13.0°F-10.6°C 57% 2.9 mph WNW4.7 kmh WNW 8.0 mph12.9 kmh 30.21 in1023.0 mb 0.00 in0.0 mm 0.00 in0.0 mm 0.00 in0.0 mm
04:27 AM 26.1°F-3.3°C 13.0°F-10.6°C 57% 2.5 mph WNW4.0 kmh WNW 7.0 mph11.3 kmh 30.21 in1023.0 mb 0.00 in0.0 mm 0.00 in0.0 mm 0.00 in0.0 mm
04:32 AM 26.1°F-3.3°C 13.0°F-10.6°C 57% 2.6 mph NW4.2 kmh NW 7.0 mph11.3 kmh 30.22 in1023.4 mb 0.00 in0.0 mm 0.00 in0.0 mm 0.00 in0.0 mm
04:37 AM 26.1°F-3.3°C 12.9°F-10.6°C 57% 1.9 mph NW3.1 kmh NW 7.0 mph11.3 kmh 30.22 in1023.4 mb 0.00 in0.0 mm 0.00 in0.0 mm 0.00 in0.0 mm
04:42 AM 26.1°F-3.3°C 13.0°F-10.6°C 57% 1.8 mph WNW2.9 kmh WNW 7.0 mph11.3 kmh 30.22 in1023.4 mb 0.00 in0.0 mm 0.00 in0.0 mm 0.00 in0.0 mm
04:47 AM 26.0°F-3.3°C 12.9°F-10.6°C 57% 2.2 mph WNW3.5 kmh WNW 7.0 mph11.3 kmh 30.22 in1023.4 mb 0.00 in0.0 mm 0.00 in0.0 mm 0.00 in0.0 mm
04:52 AM 26.0°F-3.3°C 12.9°F-10.6°C 57% 1.6 mph NW2.6 kmh NW 6.0 mph9.7 kmh 30.22 in1023.4 mb 0.00 in0.0 mm 0.00 in0.0 mm 0.00 in0.0 mm
04:57 AM 25.9°F-3.4°C 12.7°F-10.7°C 57% 2.0 mph WNW3.2 kmh WNW 6.0 mph9.7 kmh 30.22 in1023.4 mb 0.00 in0.0 mm 0.00 in0.0 mm 0.00 in0.0 mm
05:02 AM 25.9°F-3.4°C 12.8°F-10.7°C 57% 1.8 mph WNW2.9 kmh WNW 6.0 mph9.7 kmh 30.22 in1023.4 mb 0.00 in0.0 mm 0.00 in0.0 mm 0.00 in0.0 mm
05:07 AM 25.9°F-3.4°C 12.8°F-10.7°C 57% 2.0 mph WNW3.2 kmh WNW 6.0 mph9.7 kmh 30.23 in1023.7 mb 0.00 in0.0 mm 0.00 in0.0 mm 0.00 in0.0 mm
05:12 AM 25.9°F-3.4°C 12.8°F-10.7°C 57% 2.4 mph WNW3.9 kmh WNW 6.0 mph9.7 kmh 30.23 in1023.7 mb 0.00 in0.0 mm 0.00 in0.0 mm 0.00 in0.0 mm
05:17 AM 25.8°F-3.4°C 12.7°F-10.7°C 57% 2.1 mph WNW3.4 kmh WNW 6.0 mph9.7 kmh 30.23 in1023.7 mb 0.00 in0.0 mm 0.00 in0.0 mm 0.00 in0.0 mm
05:22 AM 25.7°F-3.5°C 12.6°F-10.8°C 57% 2.3 mph WNW3.7 kmh WNW 6.0 mph9.7 kmh 30.23 in1023.7 mb 0.00 in0.0 mm 0.00 in0.0 mm 0.00 in0.0 mm
05:27 AM 25.7°F-3.5°C 12.6°F-10.8°C 57% 2.4 mph WNW3.9 kmh WNW 6.0 mph9.7 kmh 30.23 in1023.7 mb 0.00 in0.0 mm 0.00 in0.0 mm 0.00 in0.0 mm
05:32 AM 25.6°F-3.6°C 12.9°F-10.6°C 58% 1.5 mph WNW2.4 kmh WNW 5.0 mph8.0 kmh 30.23 in1023.7 mb 0.00 in0.0 mm 0.00 in0.0 mm 0.00 in0.0 mm
05:37 AM 25.5°F-3.6°C 12.8°F-10.7°C 58% 1.4 mph WNW2.3 kmh WNW 5.0 mph8.0 kmh 30.23 in1023.7 mb 0.00 in0.0 mm 0.00 in0.0 mm 0.00 in0.0 mm
05:42 AM 25.5°F-3.6°C 12.8°F-10.7°C 58% 2.4 mph WNW3.9 kmh WNW 5.0 mph8.0 kmh 30.23 in1023.7 mb 0.00 in0.0 mm 0.00 in0.0 mm 0.00 in0.0 mm
05:47 AM 25.5°F-3.6°C 12.8°F-10.7°C 58% 2.3 mph WNW3.7 kmh WNW 5.0 mph8.0 kmh 30.24 in1024.0 mb 0.00 in0.0 mm 0.00 in0.0 mm 0.00 in0.0 mm
05:52 AM 25.5°F-3.6°C 12.8°F-10.7°C 58% 3.0 mph WNW4.8 kmh WNW 7.0 mph11.3 kmh 30.24 in1024.0 mb 0.00 in0.0 mm 0.00 in0.0 mm 0.00 in0.0 mm
05:57 AM 25.4°F-3.7°C 12.7°F-10.7°C 58% 2.4 mph WNW3.9 kmh WNW 7.0 mph11.3 kmh 30.24 in1024.0 mb 0.00 in0.0 mm 0.00 in0.0 mm 0.00 in0.0 mm
06:02 AM 25.4°F-3.7°C 13.1°F-10.5°C 59% 1.7 mph WNW2.7 kmh WNW 7.0 mph11.3 kmh 30.24 in1024.0 mb 0.00 in0.0 mm 0.00 in0.0 mm 0.00 in0.0 mm
06:07 AM 25.3°F-3.7°C 13.0°F-10.6°C 59% 1.3 mph WNW2.1 kmh WNW 7.0 mph11.3 kmh 30.23 in1023.7 mb 0.00 in0.0 mm 0.00 in0.0 mm 0.00 in0.0 mm
06:12 AM 25.3°F-3.7°C 13.0°F-10.6°C 59% 2.2 mph W3.5 kmh W 5.0 mph8.0 kmh 30.23 in1023.7 mb 0.00 in0.0 mm 0.00 in0.0 mm 0.00 in0.0 mm
06:17 AM 25.3°F-3.7°C 13.0°F-10.6°C 59% 1.3 mph WNW2.1 kmh WNW 5.0 mph8.0 kmh 30.23 in1023.7 mb 0.00 in0.0 mm 0.00 in0.0 mm 0.00 in0.0 mm
06:22 AM 25.2°F-3.8°C 12.9°F-10.6°C 59% 1.7 mph WNW2.7 kmh WNW 5.0 mph8.0 kmh 30.23 in1023.7 mb 0.00 in0.0 mm 0.00 in0.0 mm 0.00 in0.0 mm
06:27 AM 25.2°F-3.8°C 12.9°F-10.6°C 59% 1.8 mph WNW2.9 kmh WNW 5.0 mph8.0 kmh 30.23 in1023.7 mb 0.00 in0.0 mm 0.00 in0.0 mm 0.00 in0.0 mm
06:32 AM 25.2°F-3.8°C 12.9°F-10.6°C 59% 2.3 mph WNW3.7 kmh WNW 5.0 mph8.0 kmh 30.24 in1024.0 mb 0.00 in0.0 mm 0.00 in0.0 mm 0.00 in0.0 mm
06:37 AM 25.2°F-3.8°C 12.9°F-10.6°C 59% 1.3 mph W2.1 kmh W 5.0 mph8.0 kmh 30.24 in1024.0 mb 0.00 in0.0 mm 0.00 in0.0 mm 0.00 in0.0 mm
06:42 AM 25.2°F-3.8°C 12.9°F-10.6°C 59% 2.1 mph W3.4 kmh W 5.0 mph8.0 kmh 30.24 in1024.0 mb 0.00 in0.0 mm 0.00 in0.0 mm 0.00 in0.0 mm
06:47 AM 25.1°F-3.8°C 13.2°F-10.4°C 60% 1.6 mph WNW2.6 kmh WNW 5.0 mph8.0 kmh 30.24 in1024.0 mb 0.00 in0.0 mm 0.00 in0.0 mm 0.00 in0.0 mm
06:52 AM 25.0°F-3.9°C 13.1°F-10.5°C 60% 1.6 mph W2.6 kmh W 5.0 mph8.0 kmh 30.24 in1024.0 mb 0.00 in0.0 mm 0.00 in0.0 mm 0.00 in0.0 mm
06:57 AM 25.0°F-3.9°C 13.4°F-10.3°C 61% 1.3 mph W2.1 kmh W 5.0 mph8.0 kmh 30.24 in1024.0 mb 0.00 in0.0 mm 0.00 in0.0 mm 0.00 in0.0 mm
07:02 AM 25.0°F-3.9°C 13.1°F-10.5°C 60% 1.4 mph WNW2.3 kmh WNW 4.0 mph6.4 kmh 30.25 in1024.4 mb 0.00 in0.0 mm 0.00 in0.0 mm 0.00 in0.0 mm
07:07 AM 25.0°F-3.9°C 13.5°F-10.3°C 61% 1.0 mph WNW1.6 kmh WNW 4.0 mph6.4 kmh 30.25 in1024.4 mb 0.00 in0.0 mm 0.00 in0.0 mm 0.00 in0.0 mm
07:12 AM 25.0°F-3.9°C 13.1°F-10.5°C 60% 1.5 mph WNW2.4 kmh WNW 4.0 mph6.4 kmh 30.25 in1024.4 mb 0.00 in0.0 mm 0.00 in0.0 mm 0.00 in0.0 mm
07:17 AM 25.0°F-3.9°C 13.5°F-10.3°C 61% 1.3 mph W2.1 kmh W 3.0 mph4.8 kmh 30.26 in1024.7 mb 0.00 in0.0 mm 0.00 in0.0 mm 0.00 in0.0 mm
07:22 AM 25.0°F-3.9°C 13.4°F-10.3°C 61% 1.3 mph W2.1 kmh W 4.0 mph6.4 kmh 30.26 in1024.7 mb 0.00 in0.0 mm 0.00 in0.0 mm 0.00 in0.0 mm
07:28 AM 25.1°F-3.8°C 13.6°F-10.2°C 61% 1.9 mph W3.1 kmh W 6.0 mph9.7 kmh 30.26 in1024.7 mb 0.00 in0.0 mm 0.00 in0.0 mm 0.00 in0.0 mm
07:32 AM 25.1°F-3.8°C 13.6°F-10.2°C 61% 1.3 mph W2.1 kmh W 6.0 mph9.7 kmh 30.26 in1024.7 mb 0.00 in0.0 mm 0.00 in0.0 mm 0.00 in0.0 mm
07:37 AM 25.0°F-3.9°C 13.5°F-10.3°C 61% 2.3 mph WNW3.7 kmh WNW 6.0 mph9.7 kmh 30.26 in1024.7 mb 0.00 in0.0 mm 0.00 in0.0 mm 0.00 in0.0 mm
07:42 AM 25.1°F-3.8°C 13.6°F-10.2°C 61% 1.8 mph WNW2.9 kmh WNW 6.0 mph9.7 kmh 30.26 in1024.7 mb 0.00 in0.0 mm 0.00 in0.0 mm 0.00 in0.0 mm
07:47 AM 25.2°F-3.8°C 13.6°F-10.2°C 61% 1.8 mph W2.9 kmh W 4.0 mph6.4 kmh 30.27 in1025.1 mb 0.00 in0.0 mm 0.00 in0.0 mm 0.00 in0.0 mm
07:52 AM 25.2°F-3.8°C 14.0°F-10.0°C 62% 1.2 mph W1.9 kmh W 4.0 mph6.4 kmh 30.27 in1025.1 mb 0.00 in0.0 mm 0.00 in0.0 mm 0.00 in0.0 mm
07:57 AM 25.1°F-3.8°C 14.3°F-9.8°C 63% 1.1 mph W1.8 kmh W 4.0 mph6.4 kmh 30.27 in1025.1 mb 0.00 in0.0 mm 0.00 in0.0 mm 0.00 in0.0 mm
08:03 AM 25.0°F-3.9°C 14.6°F-9.7°C 64% 1.5 mph W2.4 kmh W 3.0 mph4.8 kmh 30.27 in1025.1 mb 0.00 in0.0 mm 0.00 in0.0 mm 0.00 in0.0 mm
08:08 AM 25.0°F-3.9°C 14.6°F-9.7°C 64% 1.4 mph W2.3 kmh W 3.0 mph4.8 kmh 30.27 in1025.1 mb 0.00 in0.0 mm 0.00 in0.0 mm 0.00 in0.0 mm
08:13 AM 25.3°F-3.7°C 14.5°F-9.7°C 63% 1.7 mph WNW2.7 kmh WNW 4.0 mph6.4 kmh 30.27 in1025.1 mb 0.00 in0.0 mm 0.00 in0.0 mm 0.00 in0.0 mm
08:18 AM 25.7°F-3.5°C 14.5°F-9.7°C 62% 2.1 mph WNW3.4 kmh WNW 5.0 mph8.0 kmh 30.27 in1025.1 mb 0.00 in0.0 mm 0.00 in0.0 mm 0.00 in0.0 mm
08:23 AM 26.2°F-3.2°C 14.2°F-9.9°C 60% 2.3 mph WNW3.7 kmh WNW 5.0 mph8.0 kmh 30.27 in1025.1 mb 0.00 in0.0 mm 0.00 in0.0 mm 0.00 in0.0 mm
08:28 AM 26.5°F-3.1°C 14.5°F-9.7°C 60% 1.2 mph W1.9 kmh W 5.0 mph8.0 kmh 30.27 in1025.1 mb 0.00 in0.0 mm 0.00 in0.0 mm 0.00 in0.0 mm
08:33 AM 26.9°F-2.8°C 14.1°F-9.9°C 58% 3.0 mph WNW4.8 kmh WNW 5.0 mph8.0 kmh 30.27 in1025.1 mb 0.00 in0.0 mm 0.00 in0.0 mm 0.00 in0.0 mm
08:38 AM 27.2°F-2.7°C 14.4°F-9.8°C 58% 2.3 mph WNW3.7 kmh WNW 7.0 mph11.3 kmh 30.27 in1025.1 mb 0.00 in0.0 mm 0.00 in0.0 mm 0.00 in0.0 mm
08:43 AM 27.6°F-2.4°C 14.8°F-9.6°C 58% 1.8 mph WNW2.9 kmh WNW 7.0 mph11.3 kmh 30.27 in1025.1 mb 0.00 in0.0 mm 0.00 in0.0 mm 0.00 in0.0 mm
08:48 AM 28.0°F-2.2°C 14.7°F-9.6°C 57% 1.8 mph WNW2.9 kmh WNW 7.0 mph11.3 kmh 30.28 in1025.4 mb 0.00 in0.0 mm 0.00 in0.0 mm 0.00 in0.0 mm
08:53 AM 28.2°F-2.1°C 14.5°F-9.7°C 56% 4.1 mph WNW6.6 kmh WNW 7.0 mph11.3 kmh 30.28 in1025.4 mb 0.00 in0.0 mm 0.00 in0.0 mm 0.00 in0.0 mm
08:58 AM 28.5°F-1.9°C 14.8°F-9.6°C 56% 3.1 mph W5.0 kmh W 7.0 mph11.3 kmh 30.29 in1025.7 mb 0.00 in0.0 mm 0.00 in0.0 mm 0.00 in0.0 mm
09:03 AM 29.0°F-1.7°C 15.3°F-9.3°C 56% 1.0 mph WSW1.6 kmh WSW 8.0 mph12.9 kmh 30.29 in1025.7 mb 0.00 in0.0 mm 0.00 in0.0 mm 0.00 in0.0 mm
09:08 AM 29.4°F-1.4°C 14.8°F-9.6°C 54% 2.4 mph W3.9 kmh W 8.0 mph12.9 kmh 30.30 in1026.1 mb 0.00 in0.0 mm 0.00 in0.0 mm 0.00 in0.0 mm
09:12 AM 29.8°F-1.2°C 15.2°F-9.3°C 54% 1.9 mph W3.1 kmh W 8.0 mph12.9 kmh 30.30 in1026.1 mb 0.00 in0.0 mm 0.00 in0.0 mm 0.00 in0.0 mm
09:17 AM 30.0°F-1.1°C 14.5°F-9.7°C 52% 3.6 mph W5.8 kmh W 8.0 mph12.9 kmh 30.30 in1026.1 mb 0.00 in0.0 mm 0.00 in0.0 mm 0.00 in0.0 mm
09:22 AM 30.4°F-0.9°C 15.7°F-9.1°C 54% 1.9 mph WSW3.1 kmh WSW 8.0 mph12.9 kmh 30.31 in1026.4 mb 0.00 in0.0 mm 0.00 in0.0 mm 0.00 in0.0 mm
09:27 AM 30.8°F-0.7°C 15.2°F-9.3°C 52% 2.2 mph W3.5 kmh W 8.0 mph12.9 kmh 30.31 in1026.4 mb 0.00 in0.0 mm 0.00 in0.0 mm 0.00 in0.0 mm
09:32 AM 31.2°F-0.4°C 15.6°F-9.1°C 52% 1.5 mph WSW2.4 kmh WSW 8.0 mph12.9 kmh 30.31 in1026.4 mb 0.00 in0.0 mm 0.00 in0.0 mm 0.00 in0.0 mm
09:37 AM 31.6°F-0.2°C 15.5°F-9.2°C 51% 2.6 mph WSW4.2 kmh WSW 7.0 mph11.3 kmh 30.31 in1026.4 mb 0.00 in0.0 mm 0.00 in0.0 mm 0.00 in0.0 mm
09:42 AM 31.8°F-0.1°C 15.7°F-9.1°C 51% 1.7 mph WSW2.7 kmh WSW 7.0 mph11.3 kmh 30.31 in1026.4 mb 0.00 in0.0 mm 0.00 in0.0 mm 0.00 in0.0 mm
09:47 AM 31.6°F-0.2°C 14.5°F-9.7°C 49% 2.8 mph WSW4.5 kmh WSW 7.0 mph11.3 kmh 30.31 in1026.4 mb 0.00 in0.0 mm 0.00 in0.0 mm 0.00 in0.0 mm
09:52 AM 31.8°F-0.1°C 15.7°F-9.1°C 51% 1.0 mph WSW1.6 kmh WSW 5.0 mph8.0 kmh 30.32 in1026.8 mb 0.00 in0.0 mm 0.00 in0.0 mm 0.00 in0.0 mm
09:57 AM 32.1°F0.1°C 15.1°F-9.4°C 49% 2.5 mph SW4.0 kmh SW 5.0 mph8.0 kmh 30.32 in1026.8 mb 0.00 in0.0 mm 0.00 in0.0 mm 0.00 in0.0 mm
10:02 AM 32.3°F0.2°C 14.8°F-9.6°C 48% 3.2 mph WSW5.1 kmh WSW 6.0 mph9.7 kmh 30.32 in1026.8 mb 0.00 in0.0 mm 0.00 in0.0 mm 0.00 in0.0 mm
10:07 AM 32.5°F0.3°C 14.4°F-9.8°C 47% 2.6 mph WSW4.2 kmh WSW 6.0 mph9.7 kmh 30.32 in1026.8 mb 0.00 in0.0 mm 0.00 in0.0 mm 0.00 in0.0 mm
10:12 AM 32.6°F0.3°C 15.1°F-9.4°C 48% 2.3 mph WSW3.7 kmh WSW 6.0 mph9.7 kmh 30.32 in1026.8 mb 0.00 in0.0 mm 0.00 in0.0 mm 0.00 in0.0 mm
10:17 AM 33.0°F0.6°C 15.3°F-9.3°C 48% 1.2 mph WSW1.9 kmh WSW 6.0 mph9.7 kmh 30.32 in1026.8 mb 0.00 in0.0 mm 0.00 in0.0 mm 0.00 in0.0 mm
10:22 AM 33.5°F0.8°C 15.8°F-9.0°C 48% 3.3 mph WSW5.3 kmh WSW 6.0 mph9.7 kmh 30.32 in1026.8 mb 0.00 in0.0 mm 0.00 in0.0 mm 0.00 in0.0 mm
10:27 AM 33.6°F0.9°C 15.4°F-9.2°C 47% 2.3 mph WSW3.7 kmh WSW 6.0 mph9.7 kmh 30.32 in1026.8 mb 0.00 in0.0 mm 0.00 in0.0 mm 0.00 in0.0 mm
10:32 AM 34.5°F1.4°C 15.7°F-9.1°C 46% 1.3 mph W2.1 kmh W 6.0 mph9.7 kmh 30.32 in1026.8 mb 0.00 in0.0 mm 0.00 in0.0 mm 0.00 in0.0 mm
10:37 AM 35.4°F1.9°C 16.5°F-8.6°C 46% 1.7 mph WSW2.7 kmh WSW 6.0 mph9.7 kmh 30.32 in1026.8 mb 0.00 in0.0 mm 0.00 in0.0 mm 0.00 in0.0 mm
10:42 AM 35.7°F2.1°C 15.4°F-9.2°C 43% 4.7 mph WNW7.6 kmh WNW 11.0 mph17.7 kmh 30.32 in1026.8 mb 0.00 in0.0 mm 0.00 in0.0 mm 0.00 in0.0 mm
10:47 AM 35.9°F2.2°C 14.8°F-9.6°C 42% 4.8 mph W7.7 kmh W 14.0 mph22.5 kmh 30.33 in1027.1 mb 0.00 in0.0 mm 0.00 in0.0 mm 0.00 in0.0 mm
10:52 AM 36.2°F2.3°C 15.1°F-9.4°C 42% 5.0 mph W8.0 kmh W 14.0 mph22.5 kmh 30.33 in1027.1 mb 0.00 in0.0 mm 0.00 in0.0 mm 0.00 in0.0 mm
10:57 AM 36.3°F2.4°C 15.2°F-9.3°C 42% 2.8 mph WNW4.5 kmh WNW 14.0 mph22.5 kmh 30.33 in1027.1 mb 0.00 in0.0 mm 0.00 in0.0 mm 0.00 in0.0 mm
11:02 AM 36.3°F2.4°C 15.2°F-9.3°C 42% 5.3 mph WNW8.5 kmh WNW 14.0 mph22.5 kmh 30.33 in1027.1 mb 0.00 in0.0 mm 0.00 in0.0 mm 0.00 in0.0 mm
11:07 AM 36.3°F2.4°C 15.2°F-9.3°C 42% 4.3 mph W6.9 kmh W 13.0 mph20.9 kmh 30.33 in1027.1 mb 0.00 in0.0 mm 0.00 in0.0 mm 0.00 in0.0 mm
11:12 AM 36.6°F2.6°C 16.6°F-8.6°C 44% 2.7 mph WNW4.3 kmh WNW 13.0 mph20.9 kmh 30.32 in1026.8 mb 0.00 in0.0 mm 0.00 in0.0 mm 0.00 in0.0 mm
11:17 AM 36.8°F2.7°C 16.2°F-8.8°C 43% 4.6 mph WNW7.4 kmh WNW 13.0 mph20.9 kmh 30.32 in1026.8 mb 0.00 in0.0 mm 0.00 in0.0 mm 0.00 in0.0 mm
11:22 AM 36.9°F2.7°C 15.8°F-9.0°C 42% 5.2 mph W8.4 kmh W 10.0 mph16.1 kmh 30.32 in1026.8 mb 0.00 in0.0 mm 0.00 in0.0 mm 0.00 in0.0 mm
11:27 AM 36.9°F2.7°C 15.8°F-9.0°C 42% 5.4 mph WNW8.7 kmh WNW 12.0 mph19.3 kmh 30.31 in1026.4 mb 0.00 in0.0 mm 0.00 in0.0 mm 0.00 in0.0 mm
11:32 AM 37.1°F2.8°C 16.5°F-8.6°C 43% 3.8 mph WNW6.1 kmh WNW 14.0 mph22.5 kmh 30.31 in1026.4 mb 0.00 in0.0 mm 0.00 in0.0 mm 0.00 in0.0 mm
11:37 AM 37.5°F3.1°C 16.9°F-8.4°C 43% 4.7 mph W7.6 kmh W 14.0 mph22.5 kmh 30.31 in1026.4 mb 0.00 in0.0 mm 0.00 in0.0 mm 0.00 in0.0 mm
11:42 AM 37.7°F3.2°C 16.5°F-8.6°C 42% 2.8 mph WNW4.5 kmh WNW 14.0 mph22.5 kmh 30.31 in1026.4 mb 0.00 in0.0 mm 0.00 in0.0 mm 0.00 in0.0 mm
11:47 AM 38.1°F3.4°C 16.8°F-8.4°C 42% 6.0 mph WSW9.7 kmh WSW 14.0 mph22.5 kmh 30.31 in1026.4 mb 0.00 in0.0 mm 0.00 in0.0 mm 0.00 in0.0 mm
11:52 AM 38.1°F3.4°C 16.3°F-8.7°C 41% 4.4 mph WSW7.1 kmh WSW 14.0 mph22.5 kmh 30.30 in1026.1 mb 0.00 in0.0 mm 0.00 in0.0 mm 0.00 in0.0 mm
11:57 AM 38.6°F3.7°C 17.9°F-7.8°C 43% 4.3 mph WSW6.9 kmh WSW 14.0 mph22.5 kmh 30.30 in1026.1 mb 0.00 in0.0 mm 0.00 in0.0 mm 0.00 in0.0 mm
12:02 PM 39.3°F4.1°C 17.9°F-7.8°C 42% 5.1 mph WNW8.2 kmh WNW 16.0 mph25.7 kmh 30.30 in1026.1 mb 0.00 in0.0 mm 0.00 in0.0 mm 0.00 in0.0 mm
12:07 PM 40.0°F4.4°C 17.0°F-8.3°C 39% 4.8 mph NW7.7 kmh NW 16.0 mph25.7 kmh 30.31 in1026.4 mb 0.00 in0.0 mm 0.00 in0.0 mm 0.00 in0.0 mm
12:12 PM 40.1°F4.5°C 17.1°F-8.3°C 39% 5.5 mph WNW8.9 kmh WNW 16.0 mph25.7 kmh 30.31 in1026.4 mb 0.00 in0.0 mm 0.00 in0.0 mm 0.00 in0.0 mm
12:17 PM 39.9°F4.4°C 16.1°F-8.8°C 38% 10.0 mph W16.1 kmh W 18.0 mph29.0 kmh 30.30 in1026.1 mb 0.00 in0.0 mm 0.00 in0.0 mm 0.00 in0.0 mm
12:22 PM 40.1°F4.5°C 16.9°F-8.4°C 39% 5.1 mph WNW8.2 kmh WNW 18.0 mph29.0 kmh 30.30 in1026.1 mb 0.00 in0.0 mm 0.00 in0.0 mm 0.00 in0.0 mm
12:27 PM 40.6°F4.8°C 17.4°F-8.1°C 39% 2.9 mph NW4.7 kmh NW 18.0 mph29.0 kmh 30.30 in1026.1 mb 0.00 in0.0 mm 0.00 in0.0 mm 0.00 in0.0 mm
12:32 PM 40.4°F4.7°C 16.8°F-8.4°C 38% 8.6 mph WNW13.8 kmh WNW 18.0 mph29.0 kmh 30.30 in1026.1 mb 0.00 in0.0 mm 0.00 in0.0 mm 0.00 in0.0 mm
12:37 PM 40.4°F4.7°C 16.6°F-8.6°C 38% 5.1 mph W8.2 kmh W 17.0 mph27.4 kmh 30.30 in1026.1 mb 0.00 in0.0 mm 0.00 in0.0 mm 0.00 in0.0 mm
12:42 PM 40.5°F4.7°C 16.7°F-8.5°C 38% 6.1 mph WNW9.8 kmh WNW 16.0 mph25.7 kmh 30.30 in1026.1 mb 0.00 in0.0 mm 0.00 in0.0 mm 0.00 in0.0 mm
12:47 PM 40.5°F4.7°C 17.3°F-8.2°C 39% 5.1 mph W8.2 kmh W 16.0 mph25.7 kmh 30.30 in1026.1 mb 0.00 in0.0 mm 0.00 in0.0 mm 0.00 in0.0 mm
12:52 PM 40.7°F4.8°C 16.8°F-8.4°C 38% 4.2 mph W6.8 kmh W 14.0 mph22.5 kmh 30.30 in1026.1 mb 0.00 in0.0 mm 0.00 in0.0 mm 0.00 in0.0 mm
12:57 PM 40.5°F4.7°C 16.9°F-8.4°C 38% 4.6 mph W7.4 kmh W 14.0 mph22.5 kmh 30.30 in1026.1 mb 0.00 in0.0 mm 0.00 in0.0 mm 0.00 in0.0 mm
01:02 PM 40.5°F4.7°C 17.5°F-8.1°C 39% 4.6 mph W7.4 kmh W 10.0 mph16.1 kmh 30.29 in1025.7 mb 0.00 in0.0 mm 0.00 in0.0 mm 0.00 in0.0 mm
01:07 PM 40.6°F4.8°C 18.0°F-7.8°C 40% 3.1 mph W5.0 kmh W 10.0 mph16.1 kmh 30.28 in1025.4 mb 0.00 in0.0 mm 0.00 in0.0 mm 0.00 in0.0 mm
01:12 PM 41.2°F5.1°C 17.9°F-7.8°C 39% 3.4 mph W5.5 kmh W 10.0 mph16.1 kmh 30.28 in1025.4 mb 0.00 in0.0 mm 0.00 in0.0 mm 0.00 in0.0 mm
01:17 PM 41.2°F5.1°C 17.5°F-8.1°C 38% 4.2 mph WSW6.8 kmh WSW 10.0 mph16.1 kmh 30.28 in1025.4 mb 0.00 in0.0 mm 0.00 in0.0 mm 0.00 in0.0 mm
01:22 PM 41.6°F5.3°C 18.3°F-7.6°C 39% 3.4 mph WSW5.5 kmh WSW 10.0 mph16.1 kmh 30.28 in1025.4 mb 0.00 in0.0 mm 0.00 in0.0 mm 0.00 in0.0 mm
01:27 PM 41.8°F5.4°C 18.4°F-7.6°C 39% 2.7 mph WSW4.3 kmh WSW 10.0 mph16.1 kmh 30.28 in1025.4 mb 0.00 in0.0 mm 0.00 in0.0 mm 0.00 in0.0 mm
01:32 PM 41.9°F5.5°C 18.5°F-7.5°C 39% 4.9 mph WSW7.9 kmh WSW 9.0 mph14.5 kmh 30.28 in1025.4 mb 0.00 in0.0 mm 0.00 in0.0 mm 0.00 in0.0 mm
01:37 PM 42.0°F5.6°C 18.6°F-7.4°C 39% 2.8 mph WSW4.5 kmh WSW 10.0 mph16.1 kmh 30.28 in1025.4 mb 0.00 in0.0 mm 0.00 in0.0 mm 0.00 in0.0 mm
01:42 PM 42.4°F5.8°C 19.0°F-7.2°C 39% 2.5 mph W4.0 kmh W 10.0 mph16.1 kmh 30.28 in1025.4 mb 0.00 in0.0 mm 0.00 in0.0 mm 0.00 in0.0 mm
01:47 PM 42.6°F5.9°C 19.2°F-7.1°C 39% 5.6 mph WNW9.0 kmh WNW 15.0 mph24.1 kmh 30.27 in1025.1 mb 0.00 in0.0 mm 0.00 in0.0 mm 0.00 in0.0 mm
01:52 PM 42.9°F6.1°C 19.4°F-7.0°C 39% 4.4 mph WNW7.1 kmh WNW 15.0 mph24.1 kmh 30.27 in1025.1 mb 0.00 in0.0 mm 0.00 in0.0 mm 0.00 in0.0 mm
01:57 PM 43.1°F6.2°C 19.0°F-7.2°C 38% 3.0 mph WNW4.8 kmh WNW 15.0 mph24.1 kmh 30.27 in1025.1 mb 0.00 in0.0 mm 0.00 in0.0 mm 0.00 in0.0 mm
02:02 PM 43.4°F6.3°C 18.6°F-7.4°C 37% 6.4 mph WNW10.3 kmh WNW 15.0 mph24.1 kmh 30.27 in1025.1 mb 0.00 in0.0 mm 0.00 in0.0 mm 0.00 in0.0 mm
02:07 PM 43.3°F6.3°C 20.0°F-6.7°C 39% 2.5 mph WNW4.0 kmh WNW 13.0 mph20.9 kmh 30.27 in1025.1 mb 0.00 in0.0 mm 0.00 in0.0 mm 0.00 in0.0 mm
02:12 PM 43.6°F6.4°C 19.4°F-7.0°C 38% 4.3 mph WNW6.9 kmh WNW 13.0 mph20.9 kmh 30.27 in1025.1 mb 0.00 in0.0 mm 0.00 in0.0 mm 0.00 in0.0 mm
02:17 PM 43.7°F6.5°C 18.9°F-7.3°C 37% 3.9 mph NW6.3 kmh NW 15.0 mph24.1 kmh 30.27 in1025.1 mb 0.00 in0.0 mm 0.00 in0.0 mm 0.00 in0.0 mm
02:22 PM 43.7°F6.5°C 18.9°F-7.3°C 37% 7.7 mph W12.4 kmh W 15.0 mph24.1 kmh 30.27 in1025.1 mb 0.00 in0.0 mm 0.00 in0.0 mm 0.00 in0.0 mm
02:27 PM 43.9°F6.6°C 19.1°F-7.2°C 37% 5.2 mph WNW8.4 kmh WNW 15.0 mph24.1 kmh 30.27 in1025.1 mb 0.00 in0.0 mm 0.00 in0.0 mm 0.00 in0.0 mm
02:32 PM 44.0°F6.7°C 19.4°F-7.0°C 37% 6.4 mph NW10.3 kmh NW 15.0 mph24.1 kmh 30.27 in1025.1 mb 0.00 in0.0 mm 0.00 in0.0 mm 0.00 in0.0 mm
02:37 PM 44.1°F6.7°C 19.2°F-7.1°C 37% 3.7 mph W6.0 kmh W 15.0 mph24.1 kmh 30.27 in1025.1 mb 0.00 in0.0 mm 0.00 in0.0 mm 0.00 in0.0 mm
02:42 PM 44.2°F6.8°C 18.9°F-7.3°C 36% 9.1 mph NW14.6 kmh NW 15.0 mph24.1 kmh 30.27 in1025.1 mb 0.00 in0.0 mm 0.00 in0.0 mm 0.00 in0.0 mm
02:47 PM 44.3°F6.8°C 19.0°F-7.2°C 36% 4.6 mph NW7.4 kmh NW 14.0 mph22.5 kmh 30.27 in1025.1 mb 0.00 in0.0 mm 0.00 in0.0 mm 0.00 in0.0 mm
02:52 PM 44.4°F6.9°C 18.2°F-7.7°C 35% 9.4 mph NW15.1 kmh NW 18.0 mph29.0 kmh 30.27 in1025.1 mb 0.00 in0.0 mm 0.00 in0.0 mm 0.00 in0.0 mm
02:57 PM 44.2°F6.8°C 18.7°F-7.4°C 36% 8.1 mph NW13.0 kmh NW 18.0 mph29.0 kmh 30.28 in1025.4 mb 0.00 in0.0 mm 0.00 in0.0 mm 0.00 in0.0 mm
03:02 PM 44.3°F6.8°C 18.1°F-7.7°C 35% 6.6 mph NW10.6 kmh NW 18.0 mph29.0 kmh 30.28 in1025.4 mb 0.00 in0.0 mm 0.00 in0.0 mm 0.00 in0.0 mm
03:07 PM 43.8°F6.6°C 17.9°F-7.8°C 35% 4.2 mph WNW6.8 kmh WNW 18.0 mph29.0 kmh 30.28 in1025.4 mb 0.00 in0.0 mm 0.00 in0.0 mm 0.00 in0.0 mm
03:12 PM 44.0°F6.7°C 18.5°F-7.5°C 36% 7.4 mph NW11.9 kmh NW 18.0 mph29.0 kmh 30.28 in1025.4 mb 0.00 in0.0 mm 0.00 in0.0 mm 0.00 in0.0 mm
03:17 PM 44.1°F6.7°C 18.6°F-7.4°C 36% 5.8 mph WNW9.3 kmh WNW 18.0 mph29.0 kmh 30.28 in1025.4 mb 0.00 in0.0 mm 0.00 in0.0 mm 0.00 in0.0 mm
03:22 PM 44.2°F6.8°C 18.9°F-7.3°C 36% 5.0 mph NW8.0 kmh NW 17.0 mph27.4 kmh 30.27 in1025.1 mb 0.00 in0.0 mm 0.00 in0.0 mm 0.00 in0.0 mm
03:27 PM 44.2°F6.8°C 18.7°F-7.4°C 36% 8.1 mph NW13.0 kmh NW 16.0 mph25.7 kmh 30.28 in1025.4 mb 0.00 in0.0 mm 0.00 in0.0 mm 0.00 in0.0 mm
03:32 PM 44.0°F6.7°C 18.5°F-7.5°C 36% 9.5 mph WNW15.3 kmh WNW 18.0 mph29.0 kmh 30.27 in1025.1 mb 0.00 in0.0 mm 0.00 in0.0 mm 0.00 in0.0 mm
03:37 PM 44.1°F6.7°C 18.6°F-7.4°C 36% 7.6 mph NW12.2 kmh NW 18.0 mph29.0 kmh 30.27 in1025.1 mb 0.00 in0.0 mm 0.00 in0.0 mm 0.00 in0.0 mm
03:42 PM 44.2°F6.8°C 18.9°F-7.3°C 36% 4.7 mph WNW7.6 kmh WNW 18.0 mph29.0 kmh 30.27 in1025.1 mb 0.00 in0.0 mm 0.00 in0.0 mm 0.00 in0.0 mm
03:47 PM 44.5°F6.9°C 19.0°F-7.2°C 36% 3.5 mph NW5.6 kmh NW 18.0 mph29.0 kmh 30.27 in1025.1 mb 0.00 in0.0 mm 0.00 in0.0 mm 0.00 in0.0 mm
03:52 PM 44.7°F7.1°C 18.5°F-7.5°C 35% 6.6 mph W10.6 kmh W 15.0 mph24.1 kmh 30.27 in1025.1 mb 0.00 in0.0 mm 0.00 in0.0 mm 0.00 in0.0 mm
03:57 PM 44.3°F6.8°C 18.3°F-7.6°C 35% 8.0 mph WNW12.9 kmh WNW 18.0 mph29.0 kmh 30.27 in1025.1 mb 0.00 in0.0 mm 0.00 in0.0 mm 0.00 in0.0 mm
04:02 PM 44.3°F6.8°C 18.8°F-7.3°C 36% 4.1 mph WNW6.6 kmh WNW 18.0 mph29.0 kmh 30.27 in1025.1 mb 0.00 in0.0 mm 0.00 in0.0 mm 0.00 in0.0 mm
04:07 PM 44.4°F6.9°C 18.9°F-7.3°C 36% 7.3 mph WNW11.7 kmh WNW 18.0 mph29.0 kmh 30.27 in1025.1 mb 0.00 in0.0 mm 0.00 in0.0 mm 0.00 in0.0 mm
04:12 PM 44.0°F6.7°C 18.5°F-7.5°C 36% 4.6 mph NW7.4 kmh NW 18.0 mph29.0 kmh 30.28 in1025.4 mb 0.00 in0.0 mm 0.00 in0.0 mm 0.00 in0.0 mm
04:17 PM 44.4°F6.9°C 19.5°F-6.9°C 37% 6.3 mph W10.1 kmh W 13.0 mph20.9 kmh 30.27 in1025.1 mb 0.00 in0.0 mm 0.00 in0.0 mm 0.00 in0.0 mm
04:22 PM 44.3°F6.8°C 18.8°F-7.3°C 36% 4.3 mph W6.9 kmh W 15.0 mph24.1 kmh 30.27 in1025.1 mb 0.00 in0.0 mm 0.00 in0.0 mm 0.00 in0.0 mm
04:27 PM 44.3°F6.8°C 18.8°F-7.3°C 36% 4.3 mph W6.9 kmh W 15.0 mph24.1 kmh 30.27 in1025.1 mb 0.00 in0.0 mm 0.00 in0.0 mm 0.00 in0.0 mm
04:32 PM 44.4°F6.9°C 18.9°F-7.3°C 36% 6.8 mph WNW10.9 kmh WNW 15.0 mph24.1 kmh 30.28 in1025.4 mb 0.00 in0.0 mm 0.00 in0.0 mm 0.00 in0.0 mm
04:37 PM 44.3°F6.8°C 18.8°F-7.3°C 36% 4.7 mph W7.6 kmh W 15.0 mph24.1 kmh 30.28 in1025.4 mb 0.00 in0.0 mm 0.00 in0.0 mm 0.00 in0.0 mm
04:42 PM 44.6°F7.0°C 19.3°F-7.1°C 36% 5.7 mph WNW9.2 kmh WNW 13.0 mph20.9 kmh 30.28 in1025.4 mb 0.00 in0.0 mm 0.00 in0.0 mm 0.00 in0.0 mm
04:47 PM 44.5°F6.9°C 19.6°F-6.9°C 37% 3.7 mph NW6.0 kmh NW 15.0 mph24.1 kmh 30.28 in1025.4 mb 0.00 in0.0 mm 0.00 in0.0 mm 0.00 in0.0 mm
04:52 PM 44.5°F6.9°C 19.8°F-6.8°C 37% 3.8 mph WNW6.1 kmh WNW 15.0 mph24.1 kmh 30.28 in1025.4 mb 0.00 in0.0 mm 0.00 in0.0 mm 0.00 in0.0 mm
04:57 PM 44.1°F6.7°C 18.6°F-7.4°C 36% 7.9 mph WNW12.7 kmh WNW 15.0 mph24.1 kmh 30.28 in1025.4 mb 0.00 in0.0 mm 0.00 in0.0 mm 0.00 in0.0 mm
05:02 PM 43.9°F6.6°C 19.1°F-7.2°C 37% 5.8 mph WNW9.3 kmh WNW 14.0 mph22.5 kmh 30.28 in1025.4 mb 0.00 in0.0 mm 0.00 in0.0 mm 0.00 in0.0 mm
05:07 PM 43.6°F6.4°C 18.8°F-7.3°C 37% 6.3 mph WNW10.1 kmh WNW 14.0 mph22.5 kmh 30.28 in1025.4 mb 0.00 in0.0 mm 0.00 in0.0 mm 0.00 in0.0 mm
05:12 PM 43.5°F6.4°C 19.3°F-7.1°C 38% 4.6 mph WNW7.4 kmh WNW 14.0 mph22.5 kmh 30.28 in1025.4 mb 0.00 in0.0 mm 0.00 in0.0 mm 0.00 in0.0 mm
05:17 PM 43.4°F6.3°C 19.9°F-6.7°C 39% 2.4 mph NW3.9 kmh NW 12.0 mph19.3 kmh 30.28 in1025.4 mb 0.00 in0.0 mm 0.00 in0.0 mm 0.00 in0.0 mm
05:22 PM 43.2°F6.2°C 19.9°F-6.7°C 39% 2.4 mph WNW3.9 kmh WNW 12.0 mph19.3 kmh 30.28 in1025.4 mb 0.00 in0.0 mm 0.00 in0.0 mm 0.00 in0.0 mm
05:27 PM 43.1°F6.2°C 19.8°F-6.8°C 39% 2.5 mph W4.0 kmh W 12.0 mph19.3 kmh 30.28 in1025.4 mb 0.00 in0.0 mm 0.00 in0.0 mm 0.00 in0.0 mm
05:32 PM 43.0°F6.1°C 20.1°F-6.6°C 40% 2.3 mph WNW3.7 kmh WNW 5.0 mph8.0 kmh 30.28 in1025.4 mb 0.00 in0.0 mm 0.00 in0.0 mm 0.00 in0.0 mm
05:37 PM 43.0°F6.1°C 20.3°F-6.5°C 40% 2.1 mph WNW3.4 kmh WNW 7.0 mph11.3 kmh 30.28 in1025.4 mb 0.00 in0.0 mm 0.00 in0.0 mm 0.00 in0.0 mm
05:42 PM 43.1°F6.2°C 20.2°F-6.6°C 40% 4.1 mph WNW6.6 kmh WNW 8.0 mph12.9 kmh 30.29 in1025.7 mb 0.00 in0.0 mm 0.00 in0.0 mm 0.00 in0.0 mm
05:47 PM 42.9°F6.1°C 20.2°F-6.6°C 40% 5.1 mph WNW8.2 kmh WNW 9.0 mph14.5 kmh 30.28 in1025.4 mb 0.00 in0.0 mm 0.00 in0.0 mm 0.00 in0.0 mm
05:52 PM 42.8°F6.0°C 19.9°F-6.7°C 40% 2.5 mph W4.0 kmh W 9.0 mph14.5 kmh 30.28 in1025.4 mb 0.00 in0.0 mm 0.00 in0.0 mm 0.00 in0.0 mm
05:57 PM 42.6°F5.9°C 20.3°F-6.5°C 41% 1.9 mph WNW3.1 kmh WNW 9.0 mph14.5 kmh 30.28 in1025.4 mb 0.00 in0.0 mm 0.00 in0.0 mm 0.00 in0.0 mm
06:02 PM 42.4°F5.8°C 20.2°F-6.6°C 41% 2.2 mph W3.5 kmh W 9.0 mph14.5 kmh 30.29 in1025.7 mb 0.00 in0.0 mm 0.00 in0.0 mm 0.00 in0.0 mm
06:07 PM 42.3°F5.7°C 20.1°F-6.6°C 41% 2.6 mph WNW4.2 kmh WNW 6.0 mph9.7 kmh 30.29 in1025.7 mb 0.00 in0.0 mm 0.00 in0.0 mm 0.00 in0.0 mm
06:12 PM 42.0°F5.6°C 20.4°F-6.4°C 42% 1.4 mph W2.3 kmh W 6.0 mph9.7 kmh 30.29 in1025.7 mb 0.00 in0.0 mm 0.00 in0.0 mm 0.00 in0.0 mm
06:17 PM 41.8°F5.4°C 20.4°F-6.4°C 42% 1.0 mph WSW1.6 kmh WSW 5.0 mph8.0 kmh 30.29 in1025.7 mb 0.00 in0.0 mm 0.00 in0.0 mm 0.00 in0.0 mm
06:22 PM 41.7°F5.4°C 20.1°F-6.6°C 42% 2.0 mph W3.2 kmh W 5.0 mph8.0 kmh 30.29 in1025.7 mb 0.00 in0.0 mm 0.00 in0.0 mm 0.00 in0.0 mm
06:27 PM 41.5°F5.3°C 19.9°F-6.7°C 42% 1.3 mph W2.1 kmh W 4.0 mph6.4 kmh 30.29 in1025.7 mb 0.00 in0.0 mm 0.00 in0.0 mm 0.00 in0.0 mm
06:32 PM 41.3°F5.2°C 20.3°F-6.5°C 43% 1.0 mph W1.6 kmh W 4.0 mph6.4 kmh 30.29 in1025.7 mb 0.00 in0.0 mm 0.00 in0.0 mm 0.00 in0.0 mm
06:37 PM 41.1°F5.1°C 20.1°F-6.6°C 43% 1.5 mph W2.4 kmh W 4.0 mph6.4 kmh 30.29 in1025.7 mb 0.00 in0.0 mm 0.00 in0.0 mm 0.00 in0.0 mm
06:42 PM 41.0°F5.0°C 20.0°F-6.7°C 43% 1.0 mph WSW1.6 kmh WSW 4.0 mph6.4 kmh 30.29 in1025.7 mb 0.00 in0.0 mm 0.00 in0.0 mm 0.00 in0.0 mm
06:47 PM 40.7°F4.8°C 20.3°F-6.5°C 44% 1.0 mph WSW1.6 kmh WSW 3.0 mph4.8 kmh 30.29 in1025.7 mb 0.00 in0.0 mm 0.00 in0.0 mm 0.00 in0.0 mm
06:52 PM 40.5°F4.7°C 20.1°F-6.6°C 44% 1.3 mph SW2.1 kmh SW 3.0 mph4.8 kmh 30.29 in1025.7 mb 0.00 in0.0 mm 0.00 in0.0 mm 0.00 in0.0 mm
06:57 PM 40.4°F4.7°C 20.1°F-6.6°C 44% 1.0 mph SW1.6 kmh SW 2.0 mph3.2 kmh 30.29 in1025.7 mb 0.00 in0.0 mm 0.00 in0.0 mm 0.00 in0.0 mm
07:02 PM 40.3°F4.6°C 20.0°F-6.7°C 44% 1.2 mph WSW1.9 kmh WSW 2.0 mph3.2 kmh 30.29 in1025.7 mb 0.00 in0.0 mm 0.00 in0.0 mm 0.00 in0.0 mm
07:07 PM 40.2°F4.6°C 20.4°F-6.4°C 45% 1.1 mph WSW1.8 kmh WSW 2.0 mph3.2 kmh 30.29 in1025.7 mb 0.00 in0.0 mm 0.00 in0.0 mm 0.00 in0.0 mm
07:11 PM 40.0°F4.4°C 20.3°F-6.5°C 45% 1.4 mph WSW2.3 kmh WSW 2.0 mph3.2 kmh 30.29 in1025.7 mb 0.00 in0.0 mm 0.00 in0.0 mm 0.00 in0.0 mm
07:16 PM 39.9°F4.4°C 20.1°F-6.6°C 45% 1.3 mph WSW2.1 kmh WSW 2.0 mph3.2 kmh 30.30 in1026.1 mb 0.00 in0.0 mm 0.00 in0.0 mm 0.00 in0.0 mm
07:21 PM 39.7°F4.3°C 20.0°F-6.7°C 45% 1.0 mph WSW1.6 kmh WSW 3.0 mph4.8 kmh 30.29 in1025.7 mb 0.00 in0.0 mm 0.00 in0.0 mm 0.00 in0.0 mm
07:26 PM 39.6°F4.2°C 20.4°F-6.4°C 46% 1.6 mph WSW2.6 kmh WSW 3.0 mph4.8 kmh 30.30 in1026.1 mb 0.00 in0.0 mm 0.00 in0.0 mm 0.00 in0.0 mm
07:31 PM 39.6°F4.2°C 20.4°F-6.4°C 46% 1.3 mph WSW2.1 kmh WSW 3.0 mph4.8 kmh 30.30 in1026.1 mb 0.00 in0.0 mm 0.00 in0.0 mm 0.00 in0.0 mm
07:36 PM 39.5°F4.2°C 20.3°F-6.5°C 46% 1.6 mph SW2.6 kmh SW 3.0 mph4.8 kmh 30.30 in1026.1 mb 0.00 in0.0 mm 0.00 in0.0 mm 0.00 in0.0 mm
07:41 PM 39.3°F4.1°C 20.2°F-6.6°C 46% 1.3 mph SW2.1 kmh SW 3.0 mph4.8 kmh 30.30 in1026.1 mb 0.00 in0.0 mm 0.00 in0.0 mm 0.00 in0.0 mm
07:46 PM 39.2°F4.0°C 20.0°F-6.7°C 46% 1.0 mph WSW1.6 kmh WSW 3.0 mph4.8 kmh 30.30 in1026.1 mb 0.00 in0.0 mm 0.00 in0.0 mm 0.00 in0.0 mm
07:51 PM 39.1°F3.9°C 19.9°F-6.7°C 46% 1.0 mph WSW1.6 kmh WSW 3.0 mph4.8 kmh 30.30 in1026.1 mb 0.00 in0.0 mm 0.00 in0.0 mm 0.00 in0.0 mm
07:56 PM 38.9°F3.8°C 20.3°F-6.5°C 47% 1.1 mph WSW1.8 kmh WSW 3.0 mph4.8 kmh 30.30 in1026.1 mb 0.00 in0.0 mm 0.00 in0.0 mm 0.00 in0.0 mm
08:01 PM 38.8°F3.8°C 20.3°F-6.5°C 47% 1.2 mph WSW1.9 kmh WSW 2.0 mph3.2 kmh 30.30 in1026.1 mb 0.00 in0.0 mm 0.00 in0.0 mm 0.00 in0.0 mm
08:06 PM 38.7°F3.7°C 20.1°F-6.6°C 47% 1.1 mph WSW1.8 kmh WSW 3.0 mph4.8 kmh 30.30 in1026.1 mb 0.00 in0.0 mm 0.00 in0.0 mm 0.00 in0.0 mm
08:11 PM 38.6°F3.7°C 20.5°F-6.4°C 48% 1.3 mph WSW2.1 kmh WSW 3.0 mph4.8 kmh 30.30 in1026.1 mb 0.00 in0.0 mm 0.00 in0.0 mm 0.00 in0.0 mm
08:16 PM 38.5°F3.6°C 20.5°F-6.4°C 48% 1.3 mph SW2.1 kmh SW 3.0 mph4.8 kmh 30.30 in1026.1 mb 0.00 in0.0 mm 0.00 in0.0 mm 0.00 in0.0 mm
08:21 PM 38.4°F3.6°C 20.3°F-6.5°C 48% 1.1 mph SW1.8 kmh SW 3.0 mph4.8 kmh 30.31 in1026.4 mb 0.00 in0.0 mm 0.00 in0.0 mm 0.00 in0.0 mm
08:26 PM 38.3°F3.5°C 20.3°F-6.5°C 48% 1.1 mph WSW1.8 kmh WSW 3.0 mph4.8 kmh 30.31 in1026.4 mb 0.00 in0.0 mm 0.00 in0.0 mm 0.00 in0.0 mm
08:31 PM 38.4°F3.6°C 20.3°F-6.5°C 48% 1.4 mph SW2.3 kmh SW 3.0 mph4.8 kmh 30.31 in1026.4 mb 0.00 in0.0 mm 0.00 in0.0 mm 0.00 in0.0 mm
08:36 PM 38.4°F3.6°C 20.4°F-6.4°C 48% 1.3 mph WSW2.1 kmh WSW 3.0 mph4.8 kmh 30.31 in1026.4 mb 0.00 in0.0 mm 0.00 in0.0 mm 0.00 in0.0 mm
08:41 PM 38.3°F3.5°C 20.2°F-6.6°C 48% 1.4 mph WSW2.3 kmh WSW 3.0 mph4.8 kmh 30.31 in1026.4 mb 0.00 in0.0 mm 0.00 in0.0 mm 0.00 in0.0 mm
08:46 PM 38.3°F3.5°C 20.2°F-6.6°C 48% 1.0 mph WSW1.6 kmh WSW 3.0 mph4.8 kmh 30.31 in1026.4 mb 0.00 in0.0 mm 0.00 in0.0 mm 0.00 in0.0 mm
08:51 PM 38.1°F3.4°C 20.0°F-6.7°C 48% 1.6 mph WSW2.6 kmh WSW 3.0 mph4.8 kmh 30.31 in1026.4 mb 0.00 in0.0 mm 0.00 in0.0 mm 0.00 in0.0 mm
08:56 PM 38.0°F3.3°C 20.0°F-6.7°C 48% 1.8 mph WSW2.9 kmh WSW 3.0 mph4.8 kmh 30.31 in1026.4 mb 0.00 in0.0 mm 0.00 in0.0 mm 0.00 in0.0 mm
09:01 PM 37.9°F3.3°C 20.4°F-6.4°C 49% 1.2 mph WSW1.9 kmh WSW 3.0 mph4.8 kmh 30.31 in1026.4 mb 0.00 in0.0 mm 0.00 in0.0 mm 0.00 in0.0 mm
09:06 PM 37.8°F3.2°C 20.3°F-6.5°C 49% 1.6 mph WSW2.6 kmh WSW 3.0 mph4.8 kmh 30.31 in1026.4 mb 0.00 in0.0 mm 0.00 in0.0 mm 0.00 in0.0 mm
09:11 PM 37.6°F3.1°C 20.1°F-6.6°C 49% 1.3 mph WSW2.1 kmh WSW 3.0 mph4.8 kmh 30.32 in1026.8 mb 0.00 in0.0 mm 0.00 in0.0 mm 0.00 in0.0 mm
09:16 PM 37.3°F2.9°C 20.3°F-6.5°C 50% 1.4 mph WSW2.3 kmh WSW 3.0 mph4.8 kmh 30.32 in1026.8 mb 0.00 in0.0 mm 0.00 in0.0 mm 0.00 in0.0 mm
09:21 PM 37.1°F2.8°C 20.6°F-6.3°C 51% 1.5 mph WSW2.4 kmh WSW 3.0 mph4.8 kmh 30.32 in1026.8 mb 0.00 in0.0 mm 0.00 in0.0 mm 0.00 in0.0 mm
09:26 PM 36.8°F2.7°C 20.3°F-6.5°C 51% 1.3 mph WSW2.1 kmh WSW 3.0 mph4.8 kmh 30.32 in1026.8 mb 0.00 in0.0 mm 0.00 in0.0 mm 0.00 in0.0 mm
09:31 PM 36.6°F2.6°C 20.6°F-6.3°C 52% 1.7 mph WSW2.7 kmh WSW 3.0 mph4.8 kmh 30.32 in1026.8 mb 0.00 in0.0 mm 0.00 in0.0 mm 0.00 in0.0 mm
09:36 PM 36.4°F2.4°C 20.9°F-6.2°C 53% 2.2 mph WSW3.5 kmh WSW 4.0 mph6.4 kmh 30.33 in1027.1 mb 0.00 in0.0 mm 0.00 in0.0 mm 0.00 in0.0 mm
09:41 PM 36.4°F2.4°C 20.9°F-6.2°C 53% 2.1 mph WSW3.4 kmh WSW 4.0 mph6.4 kmh 30.33 in1027.1 mb 0.00 in0.0 mm 0.00 in0.0 mm 0.00 in0.0 mm
09:46 PM 36.1°F2.3°C 21.0°F-6.1°C 54% 2.1 mph WSW3.4 kmh WSW 4.0 mph6.4 kmh 30.33 in1027.1 mb 0.00 in0.0 mm 0.00 in0.0 mm 0.00 in0.0 mm
09:51 PM 36.0°F2.2°C 20.9°F-6.2°C 54% 1.8 mph WSW2.9 kmh WSW 4.0 mph6.4 kmh 30.33 in1027.1 mb 0.00 in0.0 mm 0.00 in0.0 mm 0.00 in0.0 mm
09:56 PM 36.0°F2.2°C 21.0°F-6.1°C 54% 2.0 mph W3.2 kmh W 4.0 mph6.4 kmh 30.33 in1027.1 mb 0.00 in0.0 mm 0.00 in0.0 mm 0.00 in0.0 mm
10:01 PM 36.0°F2.2°C 21.0°F-6.1°C 54% 1.9 mph W3.1 kmh W 6.0 mph9.7 kmh 30.33 in1027.1 mb 0.00 in0.0 mm 0.00 in0.0 mm 0.00 in0.0 mm
10:06 PM 35.9°F2.2°C 21.3°F-5.9°C 55% 1.4 mph W2.3 kmh W 6.0 mph9.7 kmh 30.33 in1027.1 mb 0.00 in0.0 mm 0.00 in0.0 mm 0.00 in0.0 mm
10:11 PM 35.7°F2.1°C 21.1°F-6.1°C 55% 2.1 mph W3.4 kmh W 6.0 mph9.7 kmh 30.33 in1027.1 mb 0.00 in0.0 mm 0.00 in0.0 mm 0.00 in0.0 mm
10:16 PM 35.6°F2.0°C 21.0°F-6.1°C 55% 2.1 mph W3.4 kmh W 6.0 mph9.7 kmh 30.34 in1027.4 mb 0.00 in0.0 mm 0.00 in0.0 mm 0.00 in0.0 mm
10:21 PM 35.5°F1.9°C 21.3°F-5.9°C 56% 1.9 mph W3.1 kmh W 6.0 mph9.7 kmh 30.34 in1027.4 mb 0.00 in0.0 mm 0.00 in0.0 mm 0.00 in0.0 mm
10:26 PM 35.3°F1.8°C 21.2°F-6.0°C 56% 1.7 mph W2.7 kmh W 5.0 mph8.0 kmh 30.34 in1027.4 mb 0.00 in0.0 mm 0.00 in0.0 mm 0.00 in0.0 mm
10:31 PM 35.3°F1.8°C 21.2°F-6.0°C 56% 1.1 mph WSW1.8 kmh WSW 4.0 mph6.4 kmh 30.34 in1027.4 mb 0.00 in0.0 mm 0.00 in0.0 mm 0.00 in0.0 mm
10:36 PM 35.1°F1.7°C 21.4°F-5.9°C 57% 1.4 mph WSW2.3 kmh WSW 4.0 mph6.4 kmh 30.34 in1027.4 mb 0.00 in0.0 mm 0.00 in0.0 mm 0.00 in0.0 mm
10:41 PM 35.0°F1.7°C 21.3°F-5.9°C 57% 1.6 mph W2.6 kmh W 3.0 mph4.8 kmh 30.34 in1027.4 mb 0.00 in0.0 mm 0.00 in0.0 mm 0.00 in0.0 mm
10:46 PM 34.9°F1.6°C 21.2°F-6.0°C 57% 1.1 mph W1.8 kmh W 3.0 mph4.8 kmh 30.34 in1027.4 mb 0.00 in0.0 mm 0.00 in0.0 mm 0.00 in0.0 mm
10:51 PM 34.8°F1.6°C 21.1°F-6.1°C 57% 1.4 mph WSW2.3 kmh WSW 4.0 mph6.4 kmh 30.34 in1027.4 mb 0.00 in0.0 mm 0.00 in0.0 mm 0.00 in0.0 mm
10:56 PM 34.9°F1.6°C 21.2°F-6.0°C 57% 1.4 mph WSW2.3 kmh WSW 4.0 mph6.4 kmh 30.34 in1027.4 mb 0.00 in0.0 mm 0.00 in0.0 mm 0.00 in0.0 mm
11:01 PM 34.9°F1.6°C 21.2°F-6.0°C 57% 1.8 mph W2.9 kmh W 4.0 mph6.4 kmh 30.34 in1027.4 mb 0.00 in0.0 mm 0.00 in0.0 mm 0.00 in0.0 mm
11:06 PM 35.0°F1.7°C 21.3°F-5.9°C 57% 1.3 mph W2.1 kmh W 4.0 mph6.4 kmh 30.34 in1027.4 mb 0.00 in0.0 mm 0.00 in0.0 mm 0.00 in0.0 mm
11:11 PM 35.1°F1.7°C 21.0°F-6.1°C 56% 1.4 mph W2.3 kmh W 4.0 mph6.4 kmh 30.34 in1027.4 mb 0.00 in0.0 mm 0.00 in0.0 mm 0.00 in0.0 mm
11:16 PM 35.1°F1.7°C 21.4°F-5.9°C 57% 1.1 mph WSW1.8 kmh WSW 4.0 mph6.4 kmh 30.34 in1027.4 mb 0.00 in0.0 mm 0.00 in0.0 mm 0.00 in0.0 mm
11:21 PM 34.9°F1.6°C 21.2°F-6.0°C 57% 1.1 mph W1.8 kmh W 4.0 mph6.4 kmh 30.34 in1027.4 mb 0.00 in0.0 mm 0.00 in0.0 mm 0.00 in0.0 mm
11:26 PM 34.9°F1.6°C 21.2°F-6.0°C 57% 1.9 mph W3.1 kmh W 4.0 mph6.4 kmh 30.34 in1027.4 mb 0.00 in0.0 mm 0.00 in0.0 mm 0.00 in0.0 mm
11:31 PM 35.0°F1.7°C 20.9°F-6.2°C 56% 2.1 mph W3.4 kmh W 5.0 mph8.0 kmh 30.34 in1027.4 mb 0.00 in0.0 mm 0.00 in0.0 mm 0.00 in0.0 mm
11:36 PM 35.0°F1.7°C 21.3°F-5.9°C 57% 1.9 mph W3.1 kmh W 5.0 mph8.0 kmh 30.34 in1027.4 mb 0.00 in0.0 mm 0.00 in0.0 mm 0.00 in0.0 mm
11:41 PM 35.0°F1.7°C 21.3°F-5.9°C 57% 2.4 mph W3.9 kmh W 5.0 mph8.0 kmh 30.35 in1027.8 mb 0.00 in0.0 mm 0.00 in0.0 mm 0.00 in0.0 mm
11:46 PM 35.0°F1.7°C 21.3°F-5.9°C 57% 2.5 mph W4.0 kmh W 5.0 mph8.0 kmh 30.35 in1027.8 mb 0.00 in0.0 mm 0.00 in0.0 mm 0.00 in0.0 mm
11:51 PM 34.8°F1.6°C 21.1°F-6.1°C 57% 1.8 mph W2.9 kmh W 5.0 mph8.0 kmh 30.35 in1027.8 mb 0.00 in0.0 mm 0.00 in0.0 mm 0.00 in0.0 mm
11:56 PM 34.7°F1.5°C 21.0°F-6.1°C 57% 1.4 mph W2.3 kmh W 5.0 mph8.0 kmh 30.36 in1028.1 mb 0.00 in0.0 mm 0.00 in0.0 mm 0.00 in0.0 mm